Time;durP1;ratioP1;P1;durP2;ratioP2;P2;SDS_P1;SDS_P2;PMS_P1;PMS_P2;Temp;Humidity;BMP_temperature;BMP_pressure;BME280_temperature;BME280_humidity;BME280_pressure;Samples;Min_cycle;Max_cycle;Signal;HPM_P1;HPM_P2
2021/04/03 00:04:05;;;;;;;18.73;6.00;;;;;;;5.97;62.54;100574.00;5073932;57;1136503;-77
2021/04/03 00:09:31;;;;;;;10.40;3.63;;;;;;;5.87;62.56;100579.37;5088139;57;1136464;-76
2021/04/03 00:14:56;;;;;;;16.47;4.83;;;;;;;5.84;63.04;100572.52;5084806;57;1136730;-75
2021/04/03 00:20:26;;;;;;;12.98;4.17;;;;;;;5.84;63.10;100570.36;5081963;57;1136706;-75
2021/04/03 00:25:52;;;;;;;7.40;2.67;;;;;;;5.81;63.08;100568.75;5082357;57;1136530;-75
2021/04/03 00:31:19;;;;;;;11.85;3.80;;;;;;;5.73;63.18;100567.04;5081229;56;1134714;-75
2021/04/03 00:36:44;;;;;;;10.33;3.63;;;;;;;5.61;63.04;100570.36;5081555;57;1136858;-76
2021/04/03 00:42:17;;;;;;;6.50;2.70;;;;;;;5.55;63.36;100569.38;5080846;57;1136398;-75
2021/04/03 00:47:43;;;;;;;19.23;5.87;;;;;;;5.63;63.33;100569.35;5082518;57;1134182;-74
2021/04/03 00:53:18;;;;;;;13.30;3.90;;;;;;;5.72;63.49;100574.99;5084688;56;1136296;-75
2021/04/03 00:58:45;;;;;;;14.63;3.87;;;;;;;5.77;63.72;100579.06;5082526;57;1136607;-77
2021/04/03 01:04:12;;;;;;;7.07;2.17;;;;;;;5.77;63.81;100580.84;5082523;57;1136563;-76
2021/04/03 01:09:41;;;;;;;10.87;3.07;;;;;;;5.71;63.82;100575.45;5075959;57;1134644;-75
2021/04/03 01:15:20;;;;;;;13.60;4.10;;;;;;;5.67;63.50;100576.55;5073917;57;1136407;-75
2021/04/03 01:21:26;;;;;;;14.10;3.70;;;;;;;5.58;63.46;100571.84;5073504;56;1136598;-77
2021/04/03 01:26:57;;;;;;;;;;;;;;;5.59;63.88;100578.78;5076019;57;1137045;-76
2021/04/03 01:32:36;;;;;;;13.80;4.53;;;;;;;5.56;63.61;100568.45;5086374;56;971859;-78
2021/04/03 01:38:18;;;;;;;15.63;3.73;;;;;;;5.30;63.51;100570.75;5073643;56;1134569;-77
2021/04/03 01:43:47;;;;;;;14.60;5.10;;;;;;;5.30;63.51;100570.75;5071642;57;1136815;-77
2021/04/03 01:49:16;;;;;;;14.07;4.40;;;;;;;5.23;63.21;100578.56;4941342;58;1138750;-78
2021/04/03 01:54:45;;;;;;;13.37;5.33;;;;;;;5.24;63.50;100579.41;5072450;57;1138966;-77
2021/04/03 02:00:14;;;;;;;14.23;5.03;;;;;;;5.20;63.64;100579.19;5072590;56;1136752;-76
2021/04/03 02:05:43;;;;;;;13.23;4.27;;;;;;;5.09;63.55;100587.64;5072590;56;1136594;-75
2021/04/03 02:11:23;;;;;;;15.03;5.08;;;;;;;4.94;63.68;100590.63;4761317;60;1137014;-75
2021/04/03 02:16:52;;;;;;;15.30;6.43;;;;;;;4.80;63.88;100604.06;4848535;60;1136865;-76
2021/04/03 02:22:19;;;;;;;18.48;7.15;;;;;;;4.69;64.05;100608.56;4848564;59;1136859;-76
2021/04/03 02:27:47;;;;;;;24.47;8.33;;;;;;;4.69;64.32;100607.25;4849119;59;1138698;-75
2021/04/03 02:33:14;;;;;;;32.13;9.63;;;;;;;4.77;64.17;100608.15;4853022;59;1136799;-76
2021/04/03 02:38:39;;;;;;;35.47;13.50;;;;;;;4.72;63.92;100618.05;4849067;57;1136925;-75
2021/04/03 02:44:14;;;;;;;25.50;9.80;;;;;;;4.63;64.05;100615.88;4845437;58;1138920;-77
2021/04/03 02:49:46;;;;;;;;;;;;;;;4.57;64.23;100620.53;4989446;57;1136942;-75
2021/04/03 02:55:13;;;;;;;14.30;5.20;;;;;;;4.46;64.12;100629.38;5005638;57;971793;-75
2021/04/03 03:00:40;;;;;;;20.23;6.60;;;;;;;4.36;64.10;100635.16;5041165;57;1134748;-75
2021/04/03 03:06:06;;;;;;;12.87;4.97;;;;;;;4.21;64.09;100641.55;5018944;57;1136863;-78
2021/04/03 03:11:32;;;;;;;23.85;5.67;;;;;;;4.20;64.30;100635.92;5051362;57;1138873;-77
2021/04/03 03:17:00;;;;;;;10.63;4.80;;;;;;;4.14;64.57;100637.98;5061222;57;1136423;-77
2021/04/03 03:22:26;;;;;;;11.48;4.67;;;;;;;4.06;64.96;100642.30;5037040;57;1137089;-77
2021/04/03 03:27:54;;;;;;;14.10;4.40;;;;;;;3.99;65.00;100646.58;5055512;57;1136760;-78
2021/04/03 03:33:21;;;;;;;25.70;6.78;;;;;;;3.86;65.05;100645.02;5013102;58;1136510;-75
2021/04/03 03:38:50;;;;;;;19.40;7.73;;;;;;;3.84;65.43;100637.24;5012638;58;1136480;-78
2021/04/03 03:44:16;;;;;;;25.23;9.10;;;;;;;3.95;65.60;100658.14;4864646;59;1136858;-76
2021/04/03 03:49:42;;;;;;;27.17;7.93;;;;;;;3.98;65.45;100661.43;5037256;57;1136554;-76
2021/04/03 03:55:09;;;;;;;20.80;6.70;;;;;;;3.94;65.16;100662.52;4853350;59;1136956;-77
2021/04/03 04:00:35;;;;;;;29.67;11.73;;;;;;;3.91;65.24;100660.51;4844041;57;1138933;-76
2021/04/03 04:06:03;;;;;;;36.07;12.73;;;;;;;3.89;65.51;100669.27;5010818;56;1138878;-77
2021/04/03 04:11:28;;;;;;;29.33;12.40;;;;;;;3.75;65.57;100687.39;5077087;57;1139408;-77
2021/04/03 04:16:55;;;;;;;19.77;6.63;;;;;;;3.75;65.57;100687.39;4916492;57;1138657;-77
2021/04/03 04:22:21;;;;;;;17.87;6.33;;;;;;;3.56;65.96;100698.77;4803161;59;1136615;-76
2021/04/03 04:27:47;;;;;;;17.53;6.73;;;;;;;3.45;66.24;100697.50;5050729;55;1136561;-77
2021/04/03 04:33:16;;;;;;;17.34;8.06;;;;;;;3.46;66.38;100701.81;4988729;57;1136681;-78
2021/04/03 04:38:42;;;;;;;23.00;10.80;;;;;;;3.56;66.67;100706.16;4888294;57;1136684;-76
2021/04/03 04:44:09;;;;;;;25.35;9.58;;;;;;;3.58;66.69;100703.02;4892952;58;1138808;-77
2021/04/03 04:49:35;;;;;;;28.33;11.60;;;;;;;3.56;66.70;100703.53;5048487;57;1136509;-78
2021/04/03 04:55:01;;;;;;;33.00;12.27;;;;;;;3.51;66.84;100711.58;5049562;57;1138841;-76
2021/04/03 05:00:27;;;;;;;20.17;8.73;;;;;;;3.40;66.63;100714.30;5049467;57;1138760;-76
2021/04/03 05:05:54;;;;;;;26.27;9.77;;;;;;;3.30;66.71;100721.72;5047882;57;1136894;-76
2021/04/03 05:11:18;;;;;;;36.63;14.40;;;;;;;3.20;66.98;100723.50;5050091;57;1136565;-76
2021/04/03 05:16:44;;;;;;;46.33;20.07;;;;;;;3.14;67.35;100722.84;5063060;57;1140873;-75
2021/04/03 05:22:09;;;;;;;64.73;29.00;;;;;;;3.08;67.69;100724.86;5063735;57;1138604;-75
2021/04/03 05:27:36;;;;;;;46.13;17.83;;;;;;;3.08;68.22;100721.80;5062475;57;1138596;-76
2021/04/03 05:33:02;;;;;;;26.47;13.60;;;;;;;3.04;68.52;100728.09;5062618;57;1138831;-78
2021/04/03 05:38:27;;;;;;;23.27;12.80;;;;;;;2.95;68.74;100737.61;5062698;57;1142126;-75
2021/04/03 05:43:54;;;;;;;20.60;9.20;;;;;;;2.90;69.29;100740.90;5062621;57;1138752;-77
2021/04/03 05:49:22;;;;;;;35.87;13.00;;;;;;;2.89;70.06;100740.50;4915961;57;1136958;-76
2021/04/03 05:54:47;;;;;;;42.83;17.53;;;;;;;3.00;70.25;100747.42;5062788;57;1138449;-76
2021/04/03 06:00:15;;;;;;;47.50;21.13;;;;;;;3.18;70.42;100757.55;5061544;56;1138433;-75
2021/04/03 06:05:42;;;;;;;23.03;10.77;;;;;;;3.22;70.78;100767.38;5061623;57;1138481;-77
2021/04/03 06:11:20;;;;;;;85.67;32.03;;;;;;;3.26;71.27;100768.50;5063249;57;1138618;-76
2021/04/03 06:16:48;;;;;;;258.13;108.53;;;;;;;3.40;72.07;100780.51;5056838;57;1138732;-76
2021/04/03 06:22:14;;;;;;;31.20;17.47;;;;;;;3.48;72.66;100781.49;5048517;57;1142884;-76
2021/04/03 06:27:40;;;;;;;21.07;10.77;;;;;;;3.51;72.48;100791.34;5049281;57;1138676;-75
2021/04/03 06:33:21;;;;;;;60.70;37.73;;;;;;;3.58;72.95;100785.39;5047724;57;1138714;-79
2021/04/03 06:38:47;;;;;;;132.90;88.43;;;;;;;3.78;73.14;100787.13;5052036;56;1138746;-78
2021/04/03 06:44:14;;;;;;;361.45;134.82;;;;;;;3.99;72.97;100795.28;5050270;56;1140826;-75
2021/04/03 06:49:47;;;;;;;242.10;71.65;;;;;;;4.10;72.68;100807.89;5045644;56;1142805;-78
2021/04/03 06:55:18;;;;;;;78.10;36.03;;;;;;;4.10;72.26;100811.36;5050230;56;1140941;-77
2021/04/03 07:00:44;;;;;;;87.37;48.43;;;;;;;4.06;71.91;100818.10;5050084;57;1138614;-76
2021/04/03 07:06:10;;;;;;;143.00;63.07;;;;;;;4.03;72.33;100824.33;5019093;57;1139211;-79
2021/04/03 07:11:36;;;;;;;79.62;29.63;;;;;;;4.06;72.66;100822.88;5056998;57;1140690;-77
2021/04/03 07:17:04;;;;;;;119.73;42.80;;;;;;;4.16;72.92;100826.77;5057034;56;1138713;-78
2021/04/03 07:22:31;;;;;;;70.08;25.88;;;;;;;4.48;73.73;100827.88;5039845;57;1140723;-77
2021/04/03 07:27:57;;;;;;;25.17;11.73;;;;;;;4.81;73.78;100825.87;5056087;56;1138621;-78
2021/04/03 07:33:25;;;;;;;17.53;7.00;;;;;;;5.24;74.15;100835.06;5059189;57;1138757;-78
2021/04/03 07:38:51;;;;;;;13.43;7.77;;;;;;;5.63;72.65;100834.35;4937548;57;1136719;-78
2021/04/03 07:44:17;;;;;;;18.97;8.80;;;;;;;5.98;72.16;100842.16;4873862;58;1136578;-77
2021/04/03 07:49:36;;;;;;;21.75;9.00;;;;;;;6.26;71.12;100841.53;4909675;58;1136437;-77
2021/04/03 07:54:43;;;;;;;12.00;6.60;;;;;;;6.38;69.92;100843.48;4926260;57;1138726;-78
2021/04/03 07:59:52;;;;;;;7.23;3.93;;;;;;;6.65;70.51;100852.92;4923073;59;1137015;-77
2021/04/03 08:05:18;;;;;;;10.63;5.23;;;;;;;6.88;69.23;100856.87;4911590;59;1134731;-76
2021/04/03 08:10:43;;;;;;;18.40;7.33;;;;;;;6.84;67.64;100858.84;5044439;57;1136575;-77
2021/04/03 08:16:13;;;;;;;28.90;11.27;;;;;;;6.85;67.56;100863.17;4962079;57;1138683;-77
2021/04/03 08:21:45;;;;;;;16.47;4.87;;;;;;;7.23;67.44;100875.89;4896682;59;1139094;-76
2021/04/03 08:27:11;;;;;;;6.43;4.50;;;;;;;7.23;67.44;100875.89;4912558;57;1136748;-76
2021/04/03 08:32:36;;;;;;;7.85;4.37;;;;;;;7.38;66.72;100889.47;4921540;59;1134914;-76
2021/04/03 08:38:23;;;;;;;6.73;5.67;;;;;;;7.47;66.29;100880.20;5058142;56;1134291;-76
2021/04/03 08:43:49;;;;;;;11.43;4.70;;;;;;;7.65;65.87;100881.25;4946566;57;1136303;-76
2021/04/03 08:49:25;;;;;;;6.93;3.97;;;;;;;7.73;64.06;100884.30;4910039;59;1136517;-76
2021/04/03 08:54:50;;;;;;;4.50;2.43;;;;;;;7.99;65.09;100891.92;4930420;58;1134475;-77
2021/04/03 09:00:15;;;;;;;4.30;3.30;;;;;;;8.21;63.90;100893.25;4870504;59;1134748;-76
2021/04/03 09:05:50;;;;;;;3.63;3.23;;;;;;;8.52;64.21;100897.50;4954043;58;1134711;-75
2021/04/03 09:11:15;;;;;;;6.60;3.37;;;;;;;8.84;63.25;100898.94;4857635;58;1134520;-77
2021/04/03 09:16:41;;;;;;;4.63;3.10;;;;;;;9.07;61.92;100894.80;4845795;59;1134555;-77
2021/04/03 09:22:07;;;;;;;3.73;3.10;;;;;;;9.23;60.80;100899.44;4895657;58;1134577;-75
2021/04/03 09:27:32;;;;;;;16.02;3.37;;;;;;;9.35;60.34;100897.77;4897585;57;1134768;-76
2021/04/03 09:32:50;;;;;;;10.18;3.33;;;;;;;9.50;59.77;100901.55;4969400;56;1136489;-77
2021/04/03 09:38:04;;;;;;;5.43;2.20;;;;;;;9.58;56.23;100893.61;5063791;57;1138851;-75
2021/04/03 09:43:15;;;;;;;5.13;3.37;;;;;;;9.29;56.89;100904.33;4937738;57;1134429;-76
2021/04/03 09:48:22;;;;;;;4.77;2.73;;;;;;;9.05;56.90;100913.36;4932297;58;1135087;-75
2021/04/03 09:53:30;;;;;;;8.53;4.70;;;;;;;8.78;56.97;100919.09;5065090;57;1134843;-76
2021/04/03 09:58:37;;;;;;;7.72;4.05;;;;;;;8.58;57.56;100959.89;5052054;57;1134281;-75
2021/04/03 10:03:44;;;;;;;7.77;2.97;;;;;;;8.27;58.17;100908.20;4955614;57;1134425;-77
2021/04/03 10:08:51;;;;;;;5.50;3.60;;;;;;;8.56;59.39;100913.00;4927844;59;1134272;-77
2021/04/03 10:13:58;;;;;;;9.53;4.60;;;;;;;9.10;60.01;100912.59;4891780;59;1134411;-77
2021/04/03 10:19:06;;;;;;;5.53;3.30;;;;;;;9.46;58.54;100906.69;4774563;59;1134247;-81
2021/04/03 10:24:13;;;;;;;9.80;5.93;;;;;;;9.70;55.90;100906.83;4779564;59;1136540;-78
2021/04/03 10:29:21;;;;;;;5.67;4.57;;;;;;;9.82;58.00;100903.81;4878935;58;1136332;-77
2021/04/03 10:34:27;;;;;;;3.22;2.92;;;;;;;10.07;57.20;100895.91;4841209;57;1137451;-77
2021/04/03 10:39:34;;;;;;;15.53;6.97;;;;;;;10.49;56.08;100896.52;4860431;57;1138977;-78
2021/04/03 10:44:41;;;;;;;7.13;4.20;;;;;;;10.40;54.45;100890.54;4692827;60;1141097;-76
2021/04/03 10:49:48;;;;;;;5.43;4.00;;;;;;;10.61;55.52;100900.08;4875913;57;1138634;-80
2021/04/03 10:54:55;;;;;;;18.20;6.60;;;;;;;10.64;54.21;100896.74;4843427;58;1138924;-77
2021/04/03 11:00:02;;;;;;;7.67;4.70;;;;;;;10.50;53.70;100912.28;4913680;58;1140674;-80
2021/04/03 11:05:27;;;;;;;16.47;6.00;;;;;;;10.04;54.87;100920.38;4883227;58;1138660;-81
2021/04/03 11:10:53;;;;;;;2.97;1.47;;;;;;;9.38;57.80;100939.81;4909361;58;1140932;-76
2021/04/03 11:16:00;;;;;;;1.70;1.33;;;;;;;8.50;58.77;100982.41;4860543;57;1134426;-74
2021/04/03 11:21:07;;;;;;;8.80;3.50;;;;;;;7.72;59.99;100976.06;4893214;58;1134540;-77
2021/04/03 11:26:13;;;;;;;23.30;10.20;;;;;;;7.09;62.21;100991.56;4933437;57;1136676;-74
2021/04/03 11:31:20;;;;;;;5.33;3.23;;;;;;;6.72;63.09;101000.17;4971079;57;1138785;-74
2021/04/03 11:36:28;;;;;;;9.00;3.77;;;;;;;6.57;65.24;101002.31;5051284;57;1142544;-73
2021/04/03 11:41:36;;;;;;;9.65;4.22;;;;;;;6.57;66.11;101007.56;5020035;57;1136452;-74
2021/04/03 11:46:43;;;;;;;8.37;3.73;;;;;;;6.51;66.95;100986.39;5024336;57;1134976;-73
2021/04/03 11:51:50;;;;;;;9.03;3.93;;;;;;;6.65;66.97;100983.87;4915541;59;1136418;-72
2021/04/03 11:56:57;;;;;;;20.97;10.77;;;;;;;6.82;67.33;100985.59;4848180;59;1136733;-73
2021/04/03 12:02:05;;;;;;;5.60;2.93;;;;;;;6.85;67.20;100980.63;4862971;59;1138735;-78
2021/04/03 12:07:11;;;;;;;6.17;2.20;;;;;;;7.08;68.92;100974.94;5000693;56;1134265;-73
2021/04/03 12:12:19;;;;;;;3.47;2.23;;;;;;;7.57;70.25;100983.53;5053942;57;1136461;-74
2021/04/03 12:17:26;;;;;;;3.93;2.10;;;;;;;8.18;70.85;100979.06;5053495;57;1145278;-73
2021/04/03 12:22:32;;;;;;;5.42;3.20;;;;;;;8.49;69.00;100989.94;5035550;57;1136445;-74
2021/04/03 12:27:40;;;;;;;6.15;3.30;;;;;;;8.63;68.76;100989.47;5065044;57;1136564;-75
2021/04/03 12:33:05;;;;;;;2.40;1.70;;;;;;;8.79;67.73;100998.12;4907184;59;1136472;-73
2021/04/03 12:38:11;;;;;;;3.40;1.93;;;;;;;8.88;68.11;101000.64;4873416;59;1136709;-74
2021/04/03 12:43:36;;;;;;;2.17;0.98;;;;;;;9.26;67.58;100988.12;5035741;57;1136832;-74
2021/04/03 12:49:02;;;;;;;3.33;1.00;;;;;;;9.55;64.81;100985.75;5058650;57;1136624;-75
2021/04/03 12:54:27;;;;;;;0.90;0.60;;;;;;;9.30;59.58;101027.91;5034027;57;1137145;-75
2021/04/03 12:59:52;;;;;;;1.53;1.10;;;;;;;8.36;60.86;101037.29;5049342;57;1134644;-75
2021/04/03 13:05:18;;;;;;;3.10;1.40;;;;;;;7.38;62.49;101073.66;4913523;59;1134873;-76
2021/04/03 13:10:44;;;;;;;2.27;1.00;;;;;;;6.69;64.37;101091.02;4885772;59;1134788;-75
2021/04/03 13:16:10;;;;;;;1.80;1.20;;;;;;;6.20;66.04;101080.86;4914139;58;1134443;-75
2021/04/03 13:21:36;;;;;;;1.30;0.90;;;;;;;6.04;66.86;101083.40;4844879;59;1134551;-76
2021/04/03 13:27:01;;;;;;;2.70;1.27;;;;;;;5.93;68.43;101088.34;4851541;59;1136821;-75
2021/04/03 13:32:28;;;;;;;6.77;1.70;;;;;;;5.93;68.43;101088.34;4798249;59;1136817;-76
2021/04/03 13:37:54;;;;;;;6.25;2.85;;;;;;;6.08;68.71;101089.35;5028200;57;1134525;-76
2021/04/03 13:43:20;;;;;;;4.03;1.97;;;;;;;6.26;68.78;101083.19;5037197;57;1134540;-81
2021/04/03 13:48:45;;;;;;;23.40;10.53;;;;;;;6.41;68.59;101085.03;5023107;57;1134942;-76
2021/04/03 13:54:10;;;;;;;38.50;15.63;;;;;;;6.55;68.65;101087.80;5025437;57;1140891;-76
2021/04/03 13:59:36;;;;;;;15.72;8.43;;;;;;;6.47;67.66;101070.24;5022589;57;1140996;-78
2021/04/03 14:05:01;;;;;;;28.27;14.17;;;;;;;6.46;68.88;101078.20;5060413;57;1136583;-77
2021/04/03 14:10:26;;;;;;;20.00;8.30;;;;;;;6.63;70.21;101079.03;5024410;57;1138706;-77
2021/04/03 14:15:51;;;;;;;10.23;5.03;;;;;;;7.01;70.91;101077.48;4879666;57;1138393;-78
2021/04/03 14:21:17;;;;;;;14.60;6.33;;;;;;;7.16;70.14;101071.38;4932970;58;1138817;-76
2021/04/03 14:26:43;;;;;;;12.43;6.20;;;;;;;7.30;69.69;101071.94;4888459;57;1136892;-77
2021/04/03 14:32:11;;;;;;;7.60;4.53;;;;;;;7.56;70.48;101072.64;4846321;59;1138873;-75
2021/04/03 14:37:36;;;;;;;16.02;7.22;;;;;;;7.86;70.35;101079.73;4846229;59;1136612;-80
2021/04/03 14:43:02;;;;;;;5.97;2.67;;;;;;;8.11;70.23;101082.64;4896642;58;1138850;-77
2021/04/03 14:48:27;;;;;;;17.15;6.65;;;;;;;8.22;67.00;101078.92;4918793;59;1136619;-84
2021/04/03 14:53:53;;;;;;;5.20;2.00;;;;;;;8.19;66.82;101083.52;4880432;59;1138795;-79
2021/04/03 14:59:19;;;;;;;7.23;3.00;;;;;;;8.21;66.44;101090.87;4911630;59;1136710;-82
2021/04/03 15:04:45;;;;;;;15.13;4.85;;;;;;;8.30;64.45;101085.05;4857654;59;1134727;-82
2021/04/03 15:10:11;;;;;;;22.27;8.13;;;;;;;8.20;63.42;101085.22;4822457;58;1136850;-75
2021/04/03 15:15:38;;;;;;;13.37;5.07;;;;;;;8.13;62.78;101092.15;4875097;59;1136596;-75
2021/04/03 15:21:04;;;;;;;27.40;9.30;;;;;;;7.95;62.11;101088.41;4887656;58;1136740;-74
2021/04/03 15:26:30;;;;;;;29.63;9.83;;;;;;;7.85;62.46;101102.58;4864516;58;1136610;-75
2021/04/03 15:31:55;;;;;;;16.33;6.40;;;;;;;7.69;62.52;101093.86;4919582;59;1136558;-75
2021/04/03 15:37:21;;;;;;;47.88;16.93;;;;;;;7.54;62.50;101098.66;4830970;59;1136573;-74
2021/04/03 15:42:47;;;;;;;44.97;11.60;;;;;;;7.33;61.67;101099.41;4885647;59;1138907;-74
2021/04/03 15:48:13;;;;;;;49.30;29.23;;;;;;;7.23;61.24;101100.35;4892384;59;1138827;-75
2021/04/03 15:53:39;;;;;;;7.42;4.42;;;;;;;6.94;60.93;101102.39;4908908;58;1138991;-74
2021/04/03 15:59:05;;;;;;;121.50;72.13;;;;;;;6.86;61.68;101106.75;4919472;58;1134424;-74
2021/04/03 16:04:31;;;;;;;57.43;39.03;;;;;;;6.84;61.68;101105.98;4862009;59;1140774;-75
2021/04/03 16:09:56;;;;;;;23.07;12.70;;;;;;;6.86;62.03;101118.59;4941017;59;1138689;-76
2021/04/03 16:15:22;;;;;;;14.47;6.73;;;;;;;6.73;61.16;101116.65;4902848;58;1138524;-75
2021/04/03 16:20:47;;;;;;;22.57;10.00;;;;;;;6.62;61.66;101120.69;4863925;59;1136571;-77
2021/04/03 16:26:12;;;;;;;41.23;15.87;;;;;;;6.57;62.05;101124.02;4849138;59;1139428;-75
2021/04/03 16:31:38;;;;;;;46.70;16.10;;;;;;;6.59;62.16;101127.41;4835697;59;1138945;-82
2021/04/03 16:37:03;;;;;;;27.47;10.00;;;;;;;6.53;62.02;101134.32;4832153;59;1138964;-75
2021/04/03 16:42:29;;;;;;;16.93;7.83;;;;;;;6.41;61.67;101142.83;5003705;58;1138734;-76
2021/04/03 16:47:56;;;;;;;22.83;10.50;;;;;;;6.28;62.15;101152.22;5004997;58;1136564;-80
2021/04/03 16:53:21;;;;;;;92.57;48.30;;;;;;;6.23;62.40;101160.35;5004808;58;1138827;-80
2021/04/03 16:58:50;;;;;;;51.13;28.70;;;;;;;6.24;62.26;101166.46;5004936;58;1138841;-75
2021/04/03 17:04:14;;;;;;;60.47;28.93;;;;;;;6.12;62.26;101161.78;5004510;58;1139158;-75
2021/04/03 17:09:40;;;;;;;26.87;11.27;;;;;;;6.06;62.04;101169.98;5004720;58;1138819;-74
2021/04/03 17:15:07;;;;;;;141.33;68.87;;;;;;;6.01;61.96;101171.50;5008634;57;1138812;-76
2021/04/03 17:20:33;;;;;;;71.73;46.30;;;;;;;5.95;62.23;101179.23;5034258;57;1140889;-85
2021/04/03 17:25:59;;;;;;;18.67;9.40;;;;;;;5.93;62.48;101182.84;4987059;57;1138714;-86
2021/04/03 17:31:25;;;;;;;12.23;5.57;;;;;;;5.88;62.95;101199.23;4976878;58;1137038;-72
2021/04/03 17:36:52;;;;;;;22.75;11.57;;;;;;;5.76;63.05;101207.70;4987754;56;1136673;-77
2021/04/03 17:42:17;;;;;;;15.40;8.27;;;;;;;5.74;63.44;101208.22;4911525;58;1138911;-80
2021/04/03 17:47:43;;;;;;;15.55;7.78;;;;;;;5.64;63.43;101209.13;4860255;59;1136792;-77
2021/04/03 17:53:08;;;;;;;19.33;10.10;;;;;;;5.63;63.99;101219.22;4931310;58;1136869;-82
2021/04/03 17:58:33;;;;;;;40.00;23.73;;;;;;;5.61;64.16;101227.16;4924387;58;1138919;-79
2021/04/03 18:03:59;;;;;;;30.00;14.67;;;;;;;5.50;64.29;101228.58;4901168;59;1138819;-77
2021/04/03 18:09:24;;;;;;;86.27;39.40;;;;;;;5.46;64.56;101227.86;4834879;59;1138879;-86
2021/04/03 18:14:49;;;;;;;149.27;49.83;;;;;;;5.39;64.78;101229.04;4908713;57;1138735;-77
2021/04/03 18:20:17;;;;;;;26.97;12.17;;;;;;;5.36;65.28;101237.50;4903386;58;1140707;-81
2021/04/03 18:25:42;;;;;;;26.67;10.73;;;;;;;5.37;65.47;101235.27;4858579;58;1139126;-80
2021/04/03 18:31:09;;;;;;;16.47;6.50;;;;;;;5.30;65.46;101246.05;4853747;58;1138614;-78
2021/04/03 18:36:35;;;;;;;15.10;6.37;;;;;;;5.34;65.86;101249.86;4927721;57;1136883;-84
2021/04/03 18:42:04;;;;;;;13.40;5.73;;;;;;;5.19;66.11;101256.63;4981895;57;1136537;-75
2021/04/03 18:47:30;;;;;;;20.27;7.83;;;;;;;5.16;66.39;101255.45;4980926;57;1136787;-82
2021/04/03 18:52:57;;;;;;;13.60;6.00;;;;;;;5.10;66.77;101262.25;5018549;57;1136654;-80
2021/04/03 18:58:23;;;;;;;18.70;7.93;;;;;;;5.10;66.86;101260.94;5047757;57;1136634;-74
2021/04/03 19:03:48;;;;;;;14.07;5.87;;;;;;;5.11;66.94;101259.56;5020262;57;1146717;-75
2021/04/03 19:09:14;;;;;;;22.10;9.83;;;;;;;5.17;66.79;101258.46;5019746;57;1136953;-81
2021/04/03 19:14:40;;;;;;;31.63;11.70;;;;;;;5.17;66.82;101267.64;5058291;56;1141477;-73
2021/04/03 19:20:08;;;;;;;22.23;8.10;;;;;;;5.15;66.94;101274.26;5079539;56;1138850;-73
2021/04/03 19:25:34;;;;;;;11.40;5.67;;;;;;;5.06;66.75;101283.81;5085202;56;1136532;-74
2021/04/03 19:31:00;;;;;;;24.07;8.73;;;;;;;5.11;66.57;101288.87;5079182;56;1138776;-75
2021/04/03 19:36:24;;;;;;;20.47;7.33;;;;;;;5.07;66.64;101288.59;5080790;56;1136819;-87
2021/04/03 19:41:50;;;;;;;21.63;8.87;;;;;;;5.02;66.51;101291.44;5126240;56;1136724;-80
2021/04/03 19:47:17;;;;;;;16.33;8.33;;;;;;;4.99;66.54;101288.94;5098188;56;1136680;-73
2021/04/03 19:52:32;;;;;;;17.83;7.77;;;;;;;4.98;66.52;101286.38;4998166;57;1136617;-74
2021/04/03 19:58:00;;;;;;;25.77;10.00;;;;;;;4.94;66.18;101286.50;5024615;57;1136541;-74
2021/04/03 20:03:07;;;;;;;17.83;8.80;;;;;;;4.94;66.04;101295.67;5034930;56;1140665;-73
2021/04/03 20:08:33;;;;;;;35.27;13.37;;;;;;;4.91;66.12;101301.49;5037075;57;1136514;-75
2021/04/03 20:13:40;;;;;;;50.13;20.27;;;;;;;4.93;66.71;101304.45;5041269;57;1138858;-73
2021/04/03 20:18:47;;;;;;;62.13;24.32;;;;;;;5.05;66.71;101299.14;5038617;57;1139246;-73
2021/04/03 20:23:54;;;;;;;61.70;21.77;;;;;;;4.99;66.04;101302.50;5036471;57;1138933;-73
2021/04/03 20:29:02;;;;;;;34.33;13.67;;;;;;;4.90;66.16;101300.64;5037993;57;1139148;-73
2021/04/03 20:34:09;;;;;;;21.90;10.40;;;;;;;4.85;66.13;101310.94;5094569;56;1138953;-73
2021/04/03 20:39:35;;;;;;;44.00;18.00;;;;;;;4.71;65.84;101308.89;5063439;56;1138986;-73
2021/04/03 20:44:42;;;;;;;58.23;28.10;;;;;;;4.62;66.02;101314.94;4982041;58;1141070;-74
2021/04/03 20:49:50;;;;;;;17.15;8.43;;;;;;;4.54;66.27;101315.27;4982336;58;1138597;-73
2021/04/03 20:54:56;;;;;;;17.17;7.47;;;;;;;4.37;66.35;101317.69;4972955;58;1136620;-72
2021/04/03 21:00:22;;;;;;;17.63;6.83;;;;;;;4.19;66.66;101325.34;5038232;56;1136677;-73
2021/04/03 21:05:48;;;;;;;12.57;5.73;;;;;;;4.07;67.00;101331.05;5057982;57;1136478;-72
2021/04/03 21:11:13;;;;;;;25.07;12.27;;;;;;;4.00;67.16;101337.41;5038853;56;1137207;-72
2021/04/03 21:16:39;;;;;;;52.93;26.10;;;;;;;4.02;67.29;101342.59;5038547;57;1140975;-73
2021/04/03 21:22:04;;;;;;;43.77;19.73;;;;;;;4.00;67.33;101345.27;5038753;56;1138974;-72
2021/04/03 21:32:51;;;;;;;44.97;15.60;;;;;;;4.00;67.52;101349.64;5433736;53;46724;-72
2021/04/03 21:38:17;;;;;;;31.45;12.63;;;;;;;3.99;67.82;101354.02;5156399;55;1134765;-71
2021/04/03 21:43:43;;;;;;;15.33;6.13;;;;;;;4.06;67.83;101352.05;5192532;55;1138691;-71
2021/04/03 21:49:08;;;;;;;30.27;12.30;;;;;;;4.09;67.34;101358.02;5233386;54;1136552;-73
2021/04/03 21:54:34;;;;;;;41.30;15.53;;;;;;;4.07;67.16;101358.98;5150534;55;1138773;-73
2021/04/03 21:59:59;;;;;;;46.13;15.53;;;;;;;3.97;66.92;101357.18;5108261;56;1138724;-71
2021/04/03 22:05:25;;;;;;;39.37;15.43;;;;;;;3.89;66.51;101361.38;5054640;55;1139233;-72
2021/04/03 22:10:51;;;;;;;48.98;19.57;;;;;;;3.77;66.62;101375.36;5033483;56;1140969;-73
2021/04/03 22:16:17;;;;;;;51.30;18.30;;;;;;;3.73;67.08;101377.67;5103667;56;1138806;-73
2021/04/03 22:21:44;;;;;;;24.50;10.03;;;;;;;3.84;67.60;101382.91;5174195;55;1138954;-74
2021/04/03 22:27:09;;;;;;;37.67;15.80;;;;;;;3.84;67.03;101388.15;5023360;54;1138859;-73
2021/04/03 22:32:37;;;;;;;33.23;11.53;;;;;;;3.80;66.74;101392.27;4978940;56;1138805;-73
2021/04/03 22:38:01;;;;;;;20.88;9.15;;;;;;;3.61;66.10;101395.97;5166018;55;1139104;-73
2021/04/03 22:43:27;;;;;;;23.90;9.30;;;;;;;3.33;66.16;101401.75;5150108;55;1136720;-74
2021/04/03 22:48:53;;;;;;;44.83;14.70;;;;;;;3.23;66.45;101401.62;5200959;55;1136758;-74
2021/04/03 22:54:19;;;;;;;54.45;16.70;;;;;;;3.13;66.36;101393.25;5225731;55;1139247;-73
2021/04/03 22:59:45;;;;;;;39.07;14.07;;;;;;;3.12;67.06;101392.84;5187855;55;1138873;-73
2021/04/03 23:05:11;;;;;;;40.93;15.20;;;;;;;3.15;66.91;101396.67;5207268;55;1138701;-73
2021/04/03 23:10:37;;;;;;;32.13;13.53;;;;;;;3.08;67.01;101388.62;5166287;55;1138961;-73
2021/04/03 23:16:02;;;;;;;24.73;8.53;;;;;;;3.11;66.92;101393.30;5099606;56;1138756;-74
2021/04/03 23:21:28;;;;;;;15.63;7.97;;;;;;;3.01;66.28;101389.73;5066179;57;1136748;-73
2021/04/03 23:26:53;;;;;;;23.23;9.03;;;;;;;2.77;66.43;101396.58;5092152;56;1136595;-74
2021/04/03 23:32:19;;;;;;;22.30;7.07;;;;;;;2.83;67.59;101401.62;5093861;57;1137129;-73
2021/04/03 23:37:44;;;;;;;12.17;6.50;;;;;;;2.72;66.71;101406.34;5006629;57;1136799;-73
2021/04/03 23:43:10;;;;;;;20.83;6.00;;;;;;;2.53;66.92;101404.73;5103512;56;1137363;-73
2021/04/03 23:48:35;;;;;;;24.00;8.47;;;;;;;2.66;67.65;101403.91;4986727;56;1136876;-73
2021/04/03 23:54:00;;;;;;;42.47;17.70;;;;;;;2.81;67.92;101401.67;4993292;56;1137096;-73
2021/04/03 23:59:26;;;;;;;41.17;16.93;;;;;;;2.93;67.73;101408.70;4995461;56;1138942;-73
